Time;durP1;ratioP1;P1;durP2;ratioP2;P2;SDS_P1;SDS_P2;PMS_P1;PMS_P2;Temp;Humidity;BMP_temperature;BMP_pressure;BME280_temperature;BME280_humidity;BME280_pressure;Samples;Min_cycle;Max_cycle;Signal;HPM_P1;HPM_P2
2022/08/17 00:00:40;;;;;;;10.15;6.85;;;21.20;75.30;;;;;;5019323;28;20092;-16
2022/08/17 00:03:12;;;;;;;9.48;5.88;;;21.20;75.30;;;;;;5019236;28;20026;-13
2022/08/17 00:05:52;;;;;;;9.05;6.13;;;21.20;75.30;;;;;;5019406;28;20026;-15
2022/08/17 00:08:22;;;;;;;8.73;6.20;;;21.10;75.60;;;;;;5019084;28;20093;-15
2022/08/17 00:10:51;;;;;;;10.48;6.90;;;21.20;75.60;;;;;;5017892;28;20121;-16
2022/08/17 00:13:27;;;;;;;9.75;6.68;;;21.10;75.70;;;;;;5019286;28;20033;-16
2022/08/17 00:16:06;;;;;;;8.60;6.50;;;21.00;75.90;;;;;;5019313;28;20078;-14
2022/08/17 00:18:33;;;;;;;10.52;6.97;;;21.00;76.10;;;;;;5019251;28;20476;-17
2022/08/17 00:21:00;;;;;;;8.85;6.70;;;20.90;76.00;;;;;;5019024;28;20076;-16
2022/08/17 00:23:29;;;;;;;7.80;5.85;;;20.90;76.10;;;;;;5015892;28;20030;-15
2022/08/17 00:25:55;;;;;;;10.50;7.13;;;20.90;76.30;;;;;;5016044;28;20030;-14
2022/08/17 00:28:21;;;;;;;11.07;7.40;;;20.90;76.50;;;;;;5016360;28;20046;-16
2022/08/17 00:30:49;;;;;;;8.88;6.53;;;20.80;76.70;;;;;;5016095;28;20517;-17
2022/08/17 00:33:19;;;;;;;8.93;6.82;;;20.80;76.90;;;;;;5015893;28;20033;-16
2022/08/17 00:35:47;;;;;;;11.32;7.93;;;20.90;76.90;;;;;;5015876;28;20033;-15
2022/08/17 00:38:14;;;;;;;11.68;8.02;;;20.80;77.00;;;;;;5015781;28;20058;-16
2022/08/17 00:40:47;;;;;;;10.95;8.48;;;20.80;77.20;;;;;;5015838;28;20546;-16
2022/08/17 00:43:15;;;;;;;;;;;20.70;77.30;;;;;;5016253;28;20030;-16
2022/08/17 00:45:42;;;;;;;10.85;7.28;;;20.60;78.00;;;;;;5016573;28;19959;-15
2022/08/17 00:48:09;;;;;;;10.82;8.63;;;20.60;77.30;;;;;;5015744;28;20030;-16
2022/08/17 00:50:36;;;;;;;11.85;9.20;;;20.50;77.60;;;;;;5015742;28;20018;-16
2022/08/17 00:53:03;;;;;;;12.45;8.98;;;20.50;77.70;;;;;;5015377;28;20037;-15
2022/08/17 00:55:31;;;;;;;11.38;8.93;;;20.50;77.80;;;;;;5015835;28;20033;-17
2022/08/17 00:58:00;;;;;;;12.55;8.90;;;20.50;77.90;;;;;;5015448;28;20033;-16
2022/08/17 01:00:31;;;;;;;13.60;9.40;;;20.40;77.90;;;;;;5015605;28;20585;-15
2022/08/17 01:03:02;;;;;;;13.20;9.90;;;20.40;78.00;;;;;;5015167;28;20025;-15
2022/08/17 01:05:31;;;;;;;12.40;9.80;;;20.40;78.10;;;;;;5015401;28;20512;-15
2022/08/17 01:07:59;;;;;;;12.48;9.30;;;20.40;78.10;;;;;;5015316;28;20042;-16
2022/08/17 01:10:38;;;;;;;13.85;10.15;;;20.40;78.30;;;;;;5015272;28;20118;-16
2022/08/17 01:13:05;;;;;;;15.55;11.15;;;20.40;78.40;;;;;;5015176;28;20018;-15
2022/08/17 01:15:35;;;;;;;18.27;12.95;;;20.30;78.40;;;;;;5015159;28;20109;-15
2022/08/17 01:18:03;;;;;;;14.48;10.23;;;20.30;78.80;;;;;;5015232;28;20026;-16
2022/08/17 01:20:29;;;;;;;18.70;13.55;;;20.30;78.80;;;;;;5015334;28;20478;-16
2022/08/17 01:22:55;;;;;;;16.35;11.90;;;20.30;78.70;;;;;;5015036;28;20018;-15
2022/08/17 01:25:22;;;;;;;14.13;10.90;;;20.30;78.70;;;;;;5014991;28;20494;-17
2022/08/17 01:27:48;;;;;;;17.00;11.38;;;20.30;78.80;;;;;;5014924;28;20026;-16
2022/08/17 01:30:16;;;;;;;12.70;9.55;;;20.30;78.70;;;;;;5015122;28;20534;-15
2022/08/17 01:32:42;;;;;;;17.23;12.70;;;20.30;78.70;;;;;;5015057;28;20025;-16
2022/08/17 01:35:09;;;;;;;13.15;10.23;;;20.30;78.70;;;;;;5014339;28;20129;-15
2022/08/17 01:37:39;;;;;;;13.75;10.15;;;20.30;78.90;;;;;;5014969;28;20030;-16
2022/08/17 01:40:29;;;;;;;14.73;10.73;;;20.30;79.10;;;;;;5015023;28;20026;-14
2022/08/17 01:43:28;;;;;;;15.75;12.32;;;20.30;79.70;;;;;;5014461;28;20453;-15
2022/08/17 01:45:58;;;;;;;15.38;11.38;;;20.30;80.90;;;;;;4954573;28;20031;-17
2022/08/17 01:48:33;;;;;;;13.98;10.80;;;20.20;79.80;;;;;;4938112;29;20209;-14
2022/08/17 01:50:59;;;;;;;12.30;9.63;;;20.10;79.50;;;;;;4954094;29;20039;-16
2022/08/17 01:53:34;;;;;;;12.07;9.20;;;20.20;79.30;;;;;;4954166;29;20039;-17
2022/08/17 01:56:07;;;;;;;13.80;10.88;;;20.10;79.30;;;;;;4954149;28;20125;-15
2022/08/17 01:58:34;;;;;;;14.52;10.25;;;20.10;80.30;;;;;;4953997;29;20035;-18
2022/08/17 02:01:01;;;;;;;15.88;10.02;;;20.00;80.20;;;;;;4953921;29;20035;-16
2022/08/17 02:03:28;;;;;;;11.70;8.70;;;20.00;79.80;;;;;;4953998;29;20043;-15
2022/08/17 02:05:55;;;;;;;12.90;8.57;;;19.90;79.80;;;;;;4953960;29;20027;-16
2022/08/17 02:08:22;;;;;;;12.38;9.68;;;19.90;79.60;;;;;;4953597;29;20074;-16
2022/08/17 02:10:50;;;;;;;15.93;11.00;;;19.90;79.60;;;;;;4953592;29;20063;-16
2022/08/17 02:13:18;;;;;;;11.45;8.77;;;19.90;79.70;;;;;;4954484;29;20035;-17
2022/08/17 02:15:44;;;;;;;15.75;11.10;;;19.90;79.60;;;;;;4953739;29;20122;-17
2022/08/17 02:18:12;;;;;;;12.45;8.80;;;19.90;79.90;;;;;;4953525;29;20134;-16
2022/08/17 02:20:39;;;;;;;13.70;9.45;;;19.90;79.70;;;;;;4953700;29;20051;-17
2022/08/17 02:23:07;;;;;;;12.63;8.60;;;19.90;79.70;;;;;;5004166;28;20038;-17
2022/08/17 02:25:35;;;;;;;14.38;10.20;;;19.90;79.70;;;;;;5013924;28;20026;-16
2022/08/17 02:28:02;;;;;;;12.48;10.07;;;19.90;79.90;;;;;;5014267;28;20021;-17
2022/08/17 02:30:28;;;;;;;12.27;8.77;;;19.90;80.00;;;;;;5014146;28;20180;-17
2022/08/17 02:32:54;;;;;;;13.52;9.70;;;19.90;79.90;;;;;;5013498;28;20545;-16
2022/08/17 02:35:21;;;;;;;13.23;9.95;;;19.90;80.00;;;;;;5013738;28;20389;-15
2022/08/17 02:37:48;;;;;;;13.73;9.15;;;19.80;80.00;;;;;;5013634;28;20030;-15
2022/08/17 02:40:15;;;;;;;14.70;10.50;;;19.80;80.00;;;;;;5013957;28;20041;-17
2022/08/17 02:42:43;;;;;;;16.38;10.70;;;19.80;80.30;;;;;;5013960;28;20026;-15
2022/08/17 02:45:16;;;;;;;15.13;9.70;;;19.70;80.70;;;;;;5013176;28;20387;-17
2022/08/17 02:47:43;;;;;;;14.73;8.70;;;19.70;80.30;;;;;;5013869;28;20538;-16
2022/08/17 02:50:13;;;;;;;13.60;8.63;;;19.70;80.30;;;;;;5013764;28;20025;-15
2022/08/17 02:52:41;;;;;;;12.00;9.23;;;19.70;80.20;;;;;;5013837;28;20052;-16
2022/08/17 02:55:11;;;;;;;13.80;9.75;;;19.70;80.20;;;;;;5013318;28;20087;-15
2022/08/17 02:57:37;;;;;;;12.80;9.50;;;19.70;80.40;;;;;;5013454;28;20034;-16
2022/08/17 03:00:16;;;;;;;14.65;10.85;;;19.80;80.50;;;;;;5013540;28;20037;-16
2022/08/17 03:02:44;;;;;;;13.45;9.95;;;19.80;80.50;;;;;;5013434;28;20458;-15
2022/08/17 03:05:12;;;;;;;12.70;9.05;;;19.80;80.40;;;;;;5011853;28;20176;-17
2022/08/17 03:07:38;;;;;;;11.15;8.77;;;19.70;80.40;;;;;;5012557;28;20068;-17
2022/08/17 03:10:06;;;;;;;15.20;11.20;;;19.70;80.50;;;;;;5012077;28;20109;-17
2022/08/17 03:12:35;;;;;;;21.75;14.38;;;19.70;80.40;;;;;;5013597;28;20029;-17
2022/08/17 03:15:05;;;;;;;16.42;11.77;;;19.70;80.60;;;;;;5013131;28;20018;-17
2022/08/17 03:17:31;;;;;;;21.10;14.85;;;19.60;80.80;;;;;;5013136;28;20048;-16
2022/08/17 03:19:57;;;;;;;15.27;10.90;;;19.60;80.90;;;;;;5013103;28;20124;-17
2022/08/17 03:22:25;;;;;;;20.90;14.85;;;19.60;81.20;;;;;;5013350;28;20049;-17
2022/08/17 03:24:51;;;;;;;21.15;15.13;;;19.60;81.20;;;;;;5013046;28;20033;-15
2022/08/17 03:27:17;;;;;;;19.02;13.45;;;19.50;81.60;;;;;;5013483;28;20030;-17
2022/08/17 03:29:43;;;;;;;15.13;11.15;;;19.50;81.50;;;;;;5013138;28;20375;-16
2022/08/17 03:32:12;;;;;;;14.57;10.13;;;19.50;81.40;;;;;;5013437;28;20022;-15
2022/08/17 03:34:38;;;;;;;15.93;11.07;;;19.50;81.40;;;;;;5012974;28;20034;-17
2022/08/17 03:37:04;;;;;;;15.48;11.18;;;19.50;81.50;;;;;;5012907;28;20030;-17
2022/08/17 03:39:30;;;;;;;14.20;10.18;;;19.50;81.30;;;;;;5013151;28;20057;-15
2022/08/17 03:42:24;;;;;;;14.40;9.32;;;19.50;81.30;;;;;;5013212;28;20076;-15
2022/08/17 03:44:52;;;;;;;13.35;9.77;;;19.50;81.40;;;;;;5011391;28;20149;-16
2022/08/17 03:58:20;;;;;;;13.95;10.18;;;19.40;81.50;;;;;;5014462;28;20041;-15
2022/08/17 04:00:47;;;;;;;12.90;9.57;;;19.40;81.50;;;;;;5016739;28;20056;-16
2022/08/17 04:03:14;;;;;;;13.23;10.38;;;19.40;81.50;;;;;;5017045;28;20026;-17
2022/08/17 04:05:41;;;;;;;13.65;10.07;;;19.40;81.70;;;;;;5016488;28;20120;-16
2022/08/17 04:08:08;;;;;;;17.45;11.60;;;19.30;81.80;;;;;;5016462;28;20050;-16
2022/08/17 04:10:36;;;;;;;18.20;13.38;;;19.30;81.70;;;;;;5016431;28;20030;-16
2022/08/17 04:13:03;;;;;;;18.92;12.30;;;19.40;81.70;;;;;;5016147;28;20034;-16
2022/08/17 04:15:32;;;;;;;18.63;10.73;;;19.40;81.80;;;;;;5016300;28;20033;-17
2022/08/17 04:17:58;;;;;;;13.88;10.45;;;19.40;81.80;;;;;;5016201;28;20026;-17
2022/08/17 04:20:26;;;;;;;15.60;10.30;;;19.40;81.70;;;;;;5016278;28;20105;-17
2022/08/17 04:23:05;;;;;;;13.52;9.82;;;19.40;81.70;;;;;;5016260;28;20057;-17
2022/08/17 04:25:34;;;;;;;13.18;10.48;;;19.40;81.50;;;;;;5016177;28;20030;-16
2022/08/17 04:28:00;;;;;;;15.57;11.45;;;19.40;81.60;;;;;;5016510;28;20030;-16
2022/08/17 04:30:30;;;;;;;15.07;10.57;;;19.50;81.80;;;;;;5016333;28;20029;-15
2022/08/17 04:33:09;;;;;;;16.58;10.45;;;19.50;81.70;;;;;;5015852;28;20032;-16
2022/08/17 04:35:39;;;;;;;16.55;11.25;;;19.50;81.70;;;;;;5016262;28;20474;-17
2022/08/17 04:38:10;;;;;;;16.10;11.07;;;19.60;82.00;;;;;;5016157;28;20048;-15
2022/08/17 04:43:23;;;;;;;12.25;8.75;;;19.70;81.90;;;;;;5016158;28;20040;-15
2022/08/17 04:45:54;;;;;;;14.38;10.18;;;19.80;81.80;;;;;;5016145;28;20406;-17
2022/08/17 04:48:20;;;;;;;14.98;11.32;;;19.90;81.60;;;;;;5015974;28;20076;-16
2022/08/17 04:50:48;;;;;;;17.05;10.13;;;20.00;81.40;;;;;;5015771;28;20022;-17
2022/08/17 04:53:16;;;;;;;17.30;11.65;;;20.10;81.20;;;;;;5016141;28;20141;-17
2022/08/17 04:55:43;;;;;;;13.27;9.88;;;20.20;81.10;;;;;;5015789;28;20037;-17
2022/08/17 04:58:09;;;;;;;14.43;9.90;;;20.30;81.10;;;;;;5015946;28;20042;-15
2022/08/17 05:00:36;;;;;;;14.38;11.00;;;20.40;81.30;;;;;;4998044;28;20037;-15
2022/08/17 05:03:03;;;;;;;17.17;11.23;;;20.40;81.70;;;;;;5015538;28;20056;-16
2022/08/17 05:05:32;;;;;;;13.15;9.98;;;20.40;81.10;;;;;;5015659;28;20033;-16
2022/08/17 05:08:02;;;;;;;11.98;9.15;;;20.50;81.00;;;;;;5015164;28;20100;-15
2022/08/17 05:10:31;;;;;;;12.98;10.00;;;20.60;81.00;;;;;;5014915;28;20030;-17
2022/08/17 05:13:04;;;;;;;16.15;11.45;;;20.70;80.80;;;;;;5015681;28;20025;-15
2022/08/17 05:15:31;;;;;;;16.77;11.75;;;20.80;80.40;;;;;;5015777;28;20053;-17
2022/08/17 05:17:57;;;;;;;12.63;8.65;;;20.80;80.30;;;;;;5015426;28;20025;-16
2022/08/17 05:20:24;;;;;;;12.50;9.75;;;20.90;80.30;;;;;;5013767;28;20095;-15
2022/08/17 05:23:00;;;;;;;13.02;9.48;;;20.90;80.00;;;;;;5014972;28;20087;-15
2022/08/17 05:25:30;;;;;;;19.38;13.38;;;21.10;80.20;;;;;;5015521;28;20030;-17
2022/08/17 05:27:56;;;;;;;14.57;11.27;;;21.20;82.30;;;;;;5014999;28;20496;-15
2022/08/17 05:30:24;;;;;;;15.10;10.68;;;21.20;81.10;;;;;;5014880;28;20079;-17
2022/08/17 05:33:15;;;;;;;14.50;10.55;;;21.40;81.20;;;;;;5014700;28;20080;-15
2022/08/17 05:35:45;;;;;;;19.45;12.43;;;21.40;81.10;;;;;;5015442;28;20474;-14
2022/08/17 05:38:13;;;;;;;17.48;11.55;;;21.60;80.90;;;;;;5014749;28;20041;-15
2022/08/17 05:40:40;;;;;;;15.35;10.00;;;21.70;80.30;;;;;;5014888;28;20034;-14
2022/08/17 05:43:22;;;;;;;14.23;9.85;;;21.90;79.40;;;;;;5014565;28;20054;-15
2022/08/17 05:45:54;;;;;;;13.90;10.63;;;22.00;79.40;;;;;;5014687;28;20052;-16
2022/08/17 05:48:21;;;;;;;17.55;9.63;;;22.10;79.30;;;;;;5014550;28;20101;-15
2022/08/17 05:51:10;;;;;;;12.45;9.38;;;22.20;79.20;;;;;;5014866;28;20477;-14
2022/08/17 05:54:10;;;;;;;24.83;12.73;;;22.40;79.80;;;;;;5014897;28;20033;-16
2022/08/17 05:56:56;;;;;;;17.13;10.20;;;22.50;79.10;;;;;;5014424;28;20494;-16
2022/08/17 05:59:51;;;;;;;14.73;10.88;;;22.60;79.00;;;;;;5014403;28;20030;-15
2022/08/17 06:02:55;;;;;;;18.80;12.93;;;22.90;79.00;;;;;;5014333;28;20025;-15
2022/08/17 06:05:42;;;;;;;16.45;11.35;;;23.00;79.00;;;;;;4983471;28;20061;-15
2022/08/17 06:08:31;;;;;;;16.92;12.55;;;23.20;78.20;;;;;;5014058;28;20103;-16
2022/08/17 06:11:13;;;;;;;14.65;10.60;;;23.30;78.90;;;;;;5014122;28;20029;-14
2022/08/17 06:14:01;;;;;;;13.90;10.98;;;23.40;77.50;;;;;;5014185;28;20113;-15
2022/08/17 06:16:40;;;;;;;20.27;11.52;;;23.60;77.00;;;;;;5014081;28;20026;-15
2022/08/17 06:19:10;;;;;;;15.85;11.32;;;23.60;76.50;;;;;;5013856;28;20080;-15
2022/08/17 06:21:41;;;;;;;16.27;11.63;;;23.70;76.30;;;;;;5013250;28;20113;-15
2022/08/17 06:24:27;;;;;;;12.55;8.63;;;23.70;76.20;;;;;;5013973;28;20061;-14
2022/08/17 06:26:58;;;;;;;17.05;12.07;;;23.70;76.30;;;;;;5013707;28;20026;-15
2022/08/17 06:29:47;;;;;;;16.42;11.57;;;23.80;76.20;;;;;;5014177;28;20054;-14
2022/08/17 06:32:13;;;;;;;14.75;9.70;;;23.90;76.40;;;;;;5013857;28;20076;-16
2022/08/17 06:34:42;;;;;;;16.50;10.38;;;24.00;76.10;;;;;;5013980;28;20030;-15
2022/08/17 06:37:23;;;;;;;10.60;8.02;;;24.10;76.00;;;;;;5013802;28;20026;-15
2022/08/17 06:40:06;;;;;;;14.85;8.75;;;24.20;75.90;;;;;;5013992;28;20061;-14
2022/08/17 06:42:46;;;;;;;15.00;10.83;;;24.30;75.60;;;;;;5013734;28;20493;-15
2022/08/17 06:45:30;;;;;;;15.20;8.50;;;24.40;76.20;;;;;;5013711;28;20613;-16
2022/08/17 06:48:23;;;;;;;17.65;9.15;;;24.50;75.70;;;;;;5013957;28;20053;-15
2022/08/17 06:51:02;;;;;;;15.55;9.68;;;24.60;75.60;;;;;;5013368;28;20026;-13
2022/08/17 06:53:46;;;;;;;16.58;9.35;;;24.60;75.30;;;;;;5013808;28;20018;-15
2022/08/17 06:56:33;;;;;;;16.00;9.90;;;24.80;75.20;;;;;;5013773;28;20034;-13
2022/08/17 06:59:01;;;;;;;11.07;7.57;;;25.00;75.00;;;;;;5013303;28;20045;-15
2022/08/17 07:01:33;;;;;;;13.35;8.65;;;25.10;74.90;;;;;;5013723;28;20026;-15
2022/08/17 07:04:10;;;;;;;13.25;7.65;;;25.20;74.90;;;;;;5013486;28;20494;-15
2022/08/17 07:06:58;;;;;;;16.13;9.77;;;25.40;74.80;;;;;;5013396;28;20394;-15
2022/08/17 07:09:27;;;;;;;12.93;8.07;;;25.60;74.50;;;;;;4972717;28;20534;-15
2022/08/17 07:12:09;;;;;;;14.23;8.57;;;25.70;74.00;;;;;;4972728;28;20122;-14
2022/08/17 07:14:53;;;;;;;12.55;7.43;;;25.90;74.00;;;;;;4972608;28;20056;-14
2022/08/17 07:17:21;;;;;;;15.02;10.23;;;26.00;73.60;;;;;;4956080;28;20113;-14
2022/08/17 07:19:53;;;;;;;14.57;8.95;;;26.30;73.90;;;;;;4972425;28;20157;-14
2022/08/17 07:22:32;;;;;;;19.95;9.80;;;26.40;73.80;;;;;;4972285;28;20027;-14
2022/08/17 07:25:08;;;;;;;16.20;10.32;;;26.70;73.10;;;;;;4972009;28;20069;-14
2022/08/17 07:27:49;;;;;;;14.18;8.75;;;26.90;72.10;;;;;;4972167;28;20042;-14
2022/08/17 07:30:27;;;;;;;13.20;7.55;;;26.90;71.70;;;;;;4972166;28;20057;-14
2022/08/17 07:32:58;;;;;;;12.30;8.02;;;27.00;71.50;;;;;;4974395;28;20221;-15
2022/08/17 07:35:38;;;;;;;21.92;8.35;;;27.00;71.60;;;;;;4975946;28;20102;-15
2022/08/17 07:38:16;;;;;;;13.65;8.90;;;27.10;71.50;;;;;;4976123;28;20050;-15
2022/08/17 07:41:04;;;;;;;12.57;7.72;;;27.20;71.00;;;;;;4975857;28;20604;-15
2022/08/17 07:43:39;;;;;;;14.20;7.85;;;27.40;70.40;;;;;;4975915;28;20443;-13
2022/08/17 07:49:40;;;;;;;11.27;7.03;;;27.90;69.80;;;;;;5017316;28;20098;-13
2022/08/17 07:52:10;;;;;;;14.82;7.40;;;28.10;69.50;;;;;;5016832;28;20022;-14
2022/08/17 07:54:39;;;;;;;17.73;9.07;;;28.40;68.80;;;;;;5016774;28;20397;-15
2022/08/17 07:57:11;;;;;;;11.98;8.00;;;28.60;68.10;;;;;;5016606;28;20033;-14
2022/08/17 08:00:01;;;;;;;11.63;7.50;;;28.80;67.20;;;;;;5016733;28;20026;-14
2022/08/17 08:02:37;;;;;;;13.20;7.15;;;28.90;67.00;;;;;;5016643;28;20030;-14
2022/08/17 08:05:12;;;;;;;11.95;6.47;;;29.20;66.20;;;;;;5016310;28;20030;-14
2022/08/17 08:07:53;;;;;;;10.57;5.88;;;29.40;65.50;;;;;;5016986;28;20045;-14
2022/08/17 08:10:37;;;;;;;12.65;6.70;;;29.60;65.40;;;;;;5016768;28;20560;-14
2022/08/17 08:13:09;;;;;;;11.48;6.30;;;29.80;64.70;;;;;;5016476;28;20037;-16
2022/08/17 08:15:39;;;;;;;13.13;6.72;;;29.90;63.60;;;;;;5016630;28;20022;-15
2022/08/17 08:18:22;;;;;;;10.13;5.88;;;30.10;63.20;;;;;;5016238;28;20045;-15
2022/08/17 08:21:13;;;;;;;12.25;6.47;;;30.20;62.80;;;;;;5016270;28;20026;-15
2022/08/17 08:23:49;;;;;;;11.65;6.50;;;30.20;62.70;;;;;;4995420;28;20033;-15
2022/08/17 08:26:35;;;;;;;11.57;6.60;;;30.50;62.20;;;;;;5016136;28;20033;-15
2022/08/17 08:29:17;;;;;;;15.38;8.52;;;30.60;61.60;;;;;;5016022;28;20030;-14
2022/08/17 08:31:58;;;;;;;9.80;6.00;;;30.80;61.10;;;;;;5016039;28;20076;-14
2022/08/17 08:35:08;;;;;;;10.60;6.05;;;30.80;60.70;;;;;;5016003;28;20038;-14
2022/08/17 08:37:38;;;;;;;10.57;7.18;;;31.00;59.40;;;;;;4958653;28;20039;-14
2022/08/17 08:40:12;;;;;;;11.80;7.13;;;31.20;59.50;;;;;;4974833;28;20093;-14
2022/08/17 08:43:11;;;;;;;12.32;6.25;;;31.40;58.50;;;;;;4974804;28;20035;-15
2022/08/17 08:46:06;;;;;;;12.60;6.03;;;31.40;58.10;;;;;;4974861;28;20055;-16
2022/08/17 08:48:50;;;;;;;10.55;5.78;;;31.50;57.70;;;;;;4974671;28;20119;-16
2022/08/17 08:51:41;;;;;;;14.80;7.70;;;31.70;56.60;;;;;;4974671;28;20035;-15
2022/08/17 08:54:18;;;;;;;11.60;7.05;;;31.70;57.60;;;;;;4974592;28;20046;-15
2022/08/17 08:57:06;;;;;;;13.43;6.65;;;31.90;56.90;;;;;;4974568;28;20027;-15
2022/08/17 08:59:49;;;;;;;11.23;5.70;;;31.90;55.50;;;;;;4974441;28;20034;-15
2022/08/17 09:02:42;;;;;;;11.20;5.50;;;32.20;56.50;;;;;;4974458;28;20451;-15
2022/08/17 09:05:30;;;;;;;9.50;5.60;;;32.40;52.90;;;;;;4974140;28;20101;-15
2022/08/17 09:08:09;;;;;;;8.60;5.25;;;32.70;54.20;;;;;;4974149;28;20051;-15
2022/08/17 09:11:01;;;;;;;8.48;5.07;;;33.00;53.10;;;;;;4974529;28;20035;-16
2022/08/17 09:13:38;;;;;;;11.57;5.40;;;33.40;52.30;;;;;;4982936;28;20495;-16
2022/08/17 09:16:19;;;;;;;7.47;4.70;;;33.80;51.50;;;;;;4996051;28;20041;-13
2022/08/17 09:18:55;;;;;;;8.48;4.70;;;34.00;49.70;;;;;;4995694;28;20125;-15
2022/08/17 09:21:39;;;;;;;9.15;5.10;;;34.30;49.30;;;;;;4996109;28;20027;-15
2022/08/17 09:24:19;;;;;;;10.93;5.32;;;34.40;47.70;;;;;;4995498;28;20117;-15
2022/08/17 09:27:12;;;;;;;7.88;4.53;;;34.50;48.60;;;;;;4995416;28;20026;-14
2022/08/17 09:29:46;;;;;;;10.48;5.38;;;34.60;46.90;;;;;;4995595;28;20042;-14
2022/08/17 09:32:36;;;;;;;8.75;4.53;;;34.50;48.40;;;;;;4995334;28;20030;-14
2022/08/17 09:35:26;;;;;;;8.30;4.60;;;34.50;47.60;;;;;;4995323;28;20114;-14
2022/08/17 09:38:18;;;;;;;7.00;4.75;;;34.70;47.70;;;;;;4995539;28;20066;-15
2022/08/17 09:40:59;;;;;;;8.43;4.75;;;34.90;46.30;;;;;;4995389;28;20418;-15
2022/08/17 09:44:10;;;;;;;7.68;4.40;;;35.10;45.90;;;;;;4995441;28;20068;-14
2022/08/17 09:46:49;;;;;;;8.82;5.03;;;35.30;45.40;;;;;;4993797;28;20088;-14
2022/08/17 09:49:59;;;;;;;8.35;5.38;;;35.30;45.40;;;;;;4994860;28;20113;-15
2022/08/17 09:52:28;;;;;;;8.68;4.90;;;35.20;45.30;;;;;;4973522;28;20034;-15
2022/08/17 09:54:56;;;;;;;9.40;5.00;;;35.20;45.10;;;;;;4973258;28;20506;-15
2022/08/17 09:57:22;;;;;;;8.27;4.30;;;35.10;45.00;;;;;;4973362;28;20083;-15
2022/08/17 10:00:14;;;;;;;9.13;4.70;;;35.10;45.70;;;;;;4973324;28;20108;-15
2022/08/17 10:03:04;;;;;;;9.35;5.28;;;35.20;44.60;;;;;;4973509;28;20073;-15
2022/08/17 10:05:45;;;;;;;9.10;4.50;;;35.40;44.00;;;;;;4973140;28;20030;-15
2022/08/17 10:08:42;;;;;;;9.73;5.00;;;35.50;45.00;;;;;;4983926;28;20054;-15
2022/08/17 10:12:14;;;;;;;10.30;4.97;;;35.50;44.20;;;;;;4969167;28;20089;-14
2022/08/17 10:14:28;;;;;;;8.55;4.95;;;35.70;43.30;;;;;;4992280;28;20474;-16
2022/08/17 10:17:06;;;;;;;9.63;5.07;;;36.00;42.20;;;;;;4992310;28;20157;-16
2022/08/17 10:19:43;;;;;;;9.10;4.50;;;36.10;41.50;;;;;;4992357;28;20038;-17
2022/08/17 10:28:03;;;;;;;11.35;4.65;;;36.80;41.10;;;;;;4994801;28;20092;-14
2022/08/17 10:30:35;;;;;;;6.22;4.10;;;37.10;40.90;;;;;;4994368;28;20018;-14
2022/08/17 10:33:15;;;;;;;8.43;4.35;;;37.40;40.60;;;;;;4994384;28;20141;-15
2022/08/17 10:36:19;;;;;;;6.85;4.32;;;37.70;40.00;;;;;;4994178;28;20034;-14
2022/08/17 10:38:48;;;;;;;8.38;4.85;;;37.90;39.20;;;;;;4994537;28;20065;-14
2022/08/17 10:41:35;;;;;;;8.35;4.70;;;38.20;38.30;;;;;;4994589;28;20112;-14
2022/08/17 10:44:23;;;;;;;8.50;5.00;;;38.20;38.70;;;;;;4994317;28;20517;-14
2022/08/17 10:47:12;;;;;;;8.82;4.57;;;38.20;37.80;;;;;;4994185;28;20069;-15
2022/08/17 10:49:48;;;;;;;10.48;5.10;;;38.40;38.60;;;;;;4994185;28;20026;-15
2022/08/17 10:52:26;;;;;;;10.40;5.35;;;38.40;37.70;;;;;;4994240;28;20049;-15
2022/08/17 10:54:52;;;;;;;8.65;5.22;;;38.30;39.00;;;;;;4994021;28;20053;-14
2022/08/17 10:57:30;;;;;;;9.32;4.95;;;38.40;39.10;;;;;;4993752;28;20041;-14
2022/08/17 11:00:01;;;;;;;9.85;4.72;;;38.40;37.80;;;;;;4993836;28;20023;-15
2022/08/17 11:02:48;;;;;;;9.43;5.03;;;38.50;38.90;;;;;;4994135;28;20475;-15
2022/08/17 11:05:27;;;;;;;10.77;5.20;;;38.80;37.80;;;;;;4993618;28;20541;-15
2022/08/17 11:08:18;;;;;;;12.25;5.40;;;38.90;38.70;;;;;;5001631;28;20072;-14
2022/08/17 11:11:02;;;;;;;8.18;5.45;;;39.00;38.30;;;;;;5013261;28;20409;-15
2022/08/17 11:13:51;;;;;;;8.18;4.85;;;38.90;38.00;;;;;;5013264;28;20490;-15
2022/08/17 11:16:29;;;;;;;7.57;5.22;;;38.90;38.60;;;;;;5013610;28;20014;-15
2022/08/17 11:19:32;;;;;;;8.45;5.03;;;39.10;38.10;;;;;;5013202;28;20436;-14
2022/08/17 11:22:35;;;;;;;7.47;4.72;;;39.20;37.00;;;;;;5013548;28;20101;-15
2022/08/17 11:25:37;;;;;;;10.65;5.18;;;39.40;38.30;;;;;;5011763;28;20394;-15
2022/08/17 11:28:25;;;;;;;9.07;5.13;;;39.80;38.70;;;;;;4972056;28;20118;-15
2022/08/17 11:31:08;;;;;;;10.10;5.65;;;40.00;36.90;;;;;;4972064;28;20106;-14
2022/08/17 11:33:34;;;;;;;9.77;5.18;;;40.20;36.70;;;;;;4972266;28;20035;-16
2022/08/17 11:36:18;;;;;;;12.13;5.80;;;39.90;37.10;;;;;;4972016;28;20545;-14
2022/08/17 11:39:16;;;;;;;8.35;5.05;;;39.60;38.10;;;;;;4972052;28;20030;-15
2022/08/17 11:42:20;;;;;;;9.98;5.10;;;39.40;38.40;;;;;;4971995;28;20037;-15
2022/08/17 11:45:36;;;;;;;8.43;4.85;;;39.10;38.90;;;;;;4971648;28;20039;-15
2022/08/17 11:51:33;;;;;;;7.93;4.80;;;38.80;38.50;;;;;;4971991;28;20081;-15
2022/08/17 11:54:08;;;;;;;8.63;5.28;;;38.90;38.80;;;;;;4971978;28;20027;-15
2022/08/17 11:56:49;;;;;;;9.88;5.47;;;39.20;38.20;;;;;;4971902;28;20042;-15
2022/08/17 11:59:35;;;;;;;8.00;4.80;;;39.50;36.90;;;;;;4972051;28;20525;-14
2022/08/17 12:02:29;;;;;;;7.22;4.53;;;39.70;36.60;;;;;;4971899;28;20419;-15
2022/08/17 12:05:13;;;;;;;9.82;4.85;;;40.10;36.90;;;;;;4991706;28;20038;-14
2022/08/17 12:08:03;;;;;;;7.55;4.88;;;40.40;36.30;;;;;;5012849;28;20467;-14
2022/08/17 12:10:33;;;;;;;9.63;4.97;;;40.70;35.60;;;;;;5012739;28;20053;-14
2022/08/17 12:13:11;;;;;;;8.27;5.28;;;40.70;35.80;;;;;;5012640;28;20123;-15
2022/08/17 12:15:47;;;;;;;9.48;5.18;;;40.70;35.90;;;;;;5013099;28;20041;-14
2022/08/17 12:18:24;;;;;;;14.57;6.22;;;40.70;36.60;;;;;;5013000;28;20037;-14
2022/08/17 12:21:23;;;;;;;8.48;5.53;;;40.70;36.10;;;;;;5016061;28;20026;-15
2022/08/17 12:24:07;;;;;;;8.48;5.70;;;40.70;36.30;;;;;;5016513;28;20597;-15
2022/08/17 12:26:35;;;;;;;9.43;6.07;;;40.80;36.10;;;;;;5016452;28;20425;-15
2022/08/17 12:29:11;;;;;;;9.60;5.57;;;40.90;36.00;;;;;;5016222;28;20045;-15
2022/08/17 12:31:44;;;;;;;13.20;6.40;;;41.00;35.90;;;;;;5016507;28;20022;-15
2022/08/17 12:34:21;;;;;;;9.77;6.10;;;41.10;36.30;;;;;;5016307;28;20025;-14
2022/08/17 12:36:50;;;;;;;11.68;6.38;;;41.20;36.00;;;;;;5016031;28;20398;-15
2022/08/17 12:39:23;;;;;;;12.73;6.35;;;41.10;36.90;;;;;;5015990;28;20526;-14
2022/08/17 12:41:51;;;;;;;10.60;6.32;;;41.30;36.20;;;;;;5015912;28;20045;-15
2022/08/17 12:44:24;;;;;;;10.63;6.38;;;40.90;37.20;;;;;;5016108;28;20103;-14
2022/08/17 12:46:52;;;;;;;9.98;6.20;;;40.90;37.00;;;;;;5015581;28;20050;-15
2022/08/17 12:49:36;;;;;;;10.05;6.20;;;41.10;37.20;;;;;;5015641;28;20065;-16
2022/08/17 12:52:19;;;;;;;9.75;5.93;;;40.90;37.20;;;;;;5015750;28;20029;-14
2022/08/17 12:54:51;;;;;;;9.60;5.68;;;40.80;37.40;;;;;;5015853;28;20026;-15
2022/08/17 12:57:26;;;;;;;12.02;6.72;;;40.50;37.60;;;;;;5015860;28;20041;-14
2022/08/17 13:00:08;;;;;;;11.82;7.00;;;39.90;38.20;;;;;;5015575;28;20521;-14
2022/08/17 13:02:50;;;;;;;12.30;7.33;;;39.00;39.60;;;;;;5015888;28;20030;-14
2022/08/17 13:05:37;;;;;;;11.75;6.05;;;38.10;41.50;;;;;;5015683;28;20521;-14
2022/08/17 13:08:28;;;;;;;11.68;5.68;;;38.00;41.20;;;;;;5015862;28;20525;-14
2022/08/17 13:11:01;;;;;;;9.38;5.93;;;38.30;41.00;;;;;;5015267;28;20030;-14
2022/08/17 13:13:31;;;;;;;9.27;5.78;;;38.80;40.70;;;;;;5015678;28;20026;-14
2022/08/17 13:16:20;;;;;;;9.30;5.30;;;39.10;39.20;;;;;;5015772;28;20068;-15
2022/08/17 13:18:49;;;;;;;10.57;5.65;;;39.40;39.00;;;;;;5014859;28;20041;-14
2022/08/17 13:21:29;;;;;;;11.77;5.47;;;40.00;38.10;;;;;;5015154;28;20065;-14
2022/08/17 13:24:10;;;;;;;10.27;5.65;;;40.60;37.30;;;;;;5015420;28;20022;-14
2022/08/17 13:26:46;;;;;;;10.95;5.50;;;40.80;35.90;;;;;;5015342;28;20038;-15
2022/08/17 13:29:22;;;;;;;10.40;5.80;;;40.80;36.20;;;;;;5014885;28;20593;-15
2022/08/17 13:31:51;;;;;;;17.75;9.95;;;40.40;36.60;;;;;;5015225;28;20359;-16
2022/08/17 13:34:24;;;;;;;11.77;6.15;;;39.90;37.60;;;;;;5014823;28;20033;-15
2022/08/17 13:37:12;;;;;;;9.43;5.32;;;39.80;37.70;;;;;;5014802;28;20037;-14
2022/08/17 13:39:43;;;;;;;10.60;5.22;;;39.40;38.40;;;;;;5014836;28;20105;-14
2022/08/17 13:42:40;;;;;;;7.22;5.00;;;39.20;38.70;;;;;;5015004;28;20037;-16
2022/08/17 13:45:28;;;;;;;9.05;5.30;;;38.90;39.20;;;;;;5014587;28;20447;-14
2022/08/17 13:48:27;;;;;;;14.32;6.25;;;38.70;39.50;;;;;;5014632;28;20029;-14